Time;durP1;ratioP1;P1;durP2;ratioP2;P2;SDS_P1;SDS_P2;PMS_P1;PMS_P2;Temp;Humidity;BMP_temperature;BMP_pressure;BME280_temperature;BME280_humidity;BME280_pressure;Samples;Min_cycle;Max_cycle;Signal;HPM_P1;HPM_P2
2023/01/18 00:01:09;;;;;;;;;;;2.50;99.90;;;;;;5013779;28;19964;-80
2023/01/18 00:03:37;;;;;;;;;;;2.50;99.90;;;;;;5011114;28;20137;-80
2023/01/18 00:06:04;;;;;;;;;;;2.60;99.90;;;;;;5010009;28;19980;-82
2023/01/18 00:08:32;;;;;;;;;;;2.60;99.90;;;;;;5012191;28;20036;-80
2023/01/18 00:11:04;;;;;;;;;;;2.50;99.90;;;;;;5011552;28;20033;-81
2023/01/18 00:13:32;;;;;;;;;;;2.50;99.90;;;;;;5011990;28;19940;-81
2023/01/18 00:16:04;;;;;;;;;;;2.50;99.90;;;;;;5009500;28;19926;-81
2023/01/18 00:18:31;;;;;;;;;;;2.50;99.90;;;;;;5014349;28;19933;-81
2023/01/18 00:21:01;;;;;;;;;;;2.50;99.90;;;;;;5012075;28;19925;-80
2023/01/18 00:23:28;;;;;;;;;;;2.50;99.90;;;;;;4999116;28;19936;-80
2023/01/18 00:25:59;;;;;;;;;;;2.50;99.90;;;;;;5013880;28;20502;-81
2023/01/18 00:28:29;;;;;;;;;;;2.50;99.90;;;;;;5015323;28;19988;-81
2023/01/18 00:30:57;;;;;;;;;;;2.50;99.90;;;;;;5010072;28;19988;-80
2023/01/18 00:33:24;;;;;;;;;;;2.50;99.90;;;;;;4999534;28;20150;-82
2023/01/18 00:35:55;;;;;;;;;;;2.50;99.90;;;;;;5019328;28;19984;-80
2023/01/18 00:38:22;;;;;;;;;;;2.50;99.90;;;;;;5016918;28;19937;-81
2023/01/18 00:40:50;;;;;;;;;;;2.50;99.90;;;;;;5011048;28;20407;-82
2023/01/18 00:46:03;;;;;;;;;;;2.50;99.90;;;;;;5018288;28;19921;-81
2023/01/18 00:48:34;;;;;;;;;;;2.50;99.90;;;;;;5002715;28;19926;-82
2023/01/18 00:51:01;;;;;;;;;;;2.50;99.90;;;;;;5015583;28;20339;-81
2023/01/18 00:53:31;;;;;;;;;;;2.50;99.90;;;;;;5012822;28;19925;-81
2023/01/18 00:55:58;;;;;;;;;;;2.50;99.90;;;;;;5016165;28;19945;-80
2023/01/18 00:58:25;;;;;;;;;;;2.50;99.90;;;;;;5013872;28;20343;-81
2023/01/18 01:00:53;;;;;;;;;;;2.50;99.90;;;;;;5011028;28;19925;-80
2023/01/18 01:03:24;;;;;;;;;;;2.50;99.90;;;;;;5010354;28;19925;-80
2023/01/18 01:08:35;;;;;;;;;;;2.50;99.90;;;;;;5011403;28;19936;-81
2023/01/18 01:11:07;;;;;;;;;;;2.50;99.90;;;;;;5009731;28;20402;-80
2023/01/18 01:27:18;;;;;;;;;;;2.50;99.90;;;;;;5013803;28;19925;-80
2023/01/18 01:29:45;;;;;;;;;;;2.50;99.90;;;;;;5011164;28;19931;-81
2023/01/18 01:32:12;;;;;;;;;;;2.50;99.90;;;;;;5012001;28;19948;-80
2023/01/18 01:34:41;;;;;;;;;;;2.50;99.90;;;;;;5012852;28;20479;-80
2023/01/18 01:37:08;;;;;;;;;;;2.50;99.90;;;;;;5013852;28;19948;-80
2023/01/18 01:39:35;;;;;;;;;;;2.50;99.90;;;;;;5009838;28;19926;-80
2023/01/18 01:42:02;;;;;;;;;;;2.50;99.90;;;;;;5008604;28;19936;-80
2023/01/18 01:44:46;;;;;;;;;;;2.50;99.90;;;;;;4995418;28;19925;-80
2023/01/18 01:47:17;;;;;;;;;;;2.50;99.90;;;;;;5016908;28;19985;-80
2023/01/18 01:49:51;;;;;;;;;;;2.40;99.90;;;;;;5014874;28;20376;-81
2023/01/18 01:52:24;;;;;;;;;;;2.40;99.90;;;;;;4993590;28;20520;-81
2023/01/18 01:54:54;;;;;;;;;;;2.50;99.90;;;;;;5012697;28;19969;-80
2023/01/18 01:57:21;;;;;;;;;;;2.50;99.90;;;;;;5008934;28;19937;-80
2023/01/18 01:59:50;;;;;;;;;;;2.40;99.90;;;;;;4985334;28;19930;-80
2023/01/18 02:02:18;;;;;;;;;;;2.40;99.90;;;;;;5008978;28;20013;-81
2023/01/18 02:04:45;;;;;;;;;;;2.50;99.90;;;;;;5010894;28;19980;-82
2023/01/18 02:07:13;;;;;;;;;;;2.50;99.90;;;;;;5011008;28;19925;-81
2023/01/18 02:09:41;;;;;;;;;;;2.50;99.90;;;;;;4990788;28;19926;-80
2023/01/18 02:12:08;;;;;;;;;;;2.40;99.90;;;;;;5014137;28;20387;-80
2023/01/18 02:14:35;;;;;;;;;;;2.40;99.90;;;;;;4993981;28;19980;-81
2023/01/18 02:17:12;;;;;;;;;;;2.50;99.90;;;;;;5005709;28;19925;-80
2023/01/18 02:19:54;;;;;;;;;;;2.40;99.90;;;;;;5005081;28;19930;-80
2023/01/18 02:22:27;;;;;;;;;;;2.40;99.90;;;;;;5013315;28;19980;-80
2023/01/18 02:25:03;;;;;;;;;;;2.40;99.90;;;;;;4992119;28;19933;-80
2023/01/18 02:27:33;;;;;;;;;;;2.40;99.90;;;;;;5010463;28;19926;-81
2023/01/18 02:30:07;;;;;;;;;;;2.40;99.90;;;;;;5007489;28;21921;-81
2023/01/18 02:32:42;;;;;;;;;;;2.40;99.90;;;;;;5010652;28;20004;-80
2023/01/18 02:35:13;;;;;;;;;;;2.40;99.90;;;;;;5011842;28;19929;-80
2023/01/18 02:37:44;;;;;;;;;;;2.40;99.90;;;;;;5014544;28;19980;-80
2023/01/18 02:40:15;;;;;;;;;;;2.30;99.90;;;;;;5011884;28;19933;-84
2023/01/18 02:48:16;;;;;;;;;;;2.40;99.90;;;;;;5008843;28;19937;-80
2023/01/18 02:50:44;;;;;;;;;;;2.40;99.90;;;;;;5010234;28;19934;-80
2023/01/18 02:53:12;;;;;;;;;;;2.40;99.90;;;;;;5008171;28;19933;-80
2023/01/18 02:55:43;;;;;;;;;;;2.40;99.90;;;;;;5009127;28;20270;-80
2023/01/18 02:58:15;;;;;;;;;;;2.40;99.90;;;;;;5009998;28;19930;-80
2023/01/18 03:00:44;;;;;;;;;;;2.40;99.90;;;;;;5000217;28;19976;-81
2023/01/18 03:03:12;;;;;;;;;;;2.40;99.90;;;;;;5007795;28;19996;-80
2023/01/18 03:05:40;;;;;;;;;;;2.30;99.90;;;;;;5004466;28;19930;-81
2023/01/18 03:08:10;;;;;;;;;;;2.30;99.90;;;;;;5009160;28;19972;-81
2023/01/18 03:10:40;;;;;;;;;;;2.30;99.90;;;;;;5004145;28;19930;-80
2023/01/18 03:13:11;;;;;;;;;;;2.30;99.90;;;;;;4985388;28;19940;-81
2023/01/18 03:15:44;;;;;;;;;;;2.30;99.90;;;;;;5005727;28;20028;-80
2023/01/18 03:18:14;;;;;;;;;;;2.30;99.90;;;;;;5005810;28;19933;-80
2023/01/18 03:20:43;;;;;;;;;;;2.30;99.90;;;;;;5005039;28;19932;-80
2023/01/18 03:25:59;;;;;;;;;;;2.30;99.90;;;;;;5002347;28;19946;-80
2023/01/18 03:34:08;;;;;;;;;;;2.20;99.90;;;;;;5008906;28;20524;-80
2023/01/18 03:36:36;;;;;;;;;;;2.30;99.90;;;;;;5006620;28;19925;-80
2023/01/18 03:39:06;;;;;;;;;;;2.20;99.90;;;;;;4999980;28;19937;-80
2023/01/18 03:41:35;;;;;;;;;;;2.20;99.90;;;;;;4999618;28;19925;-81
2023/01/18 03:44:05;;;;;;;;;;;2.20;99.90;;;;;;4988878;28;19937;-81
2023/01/18 03:46:32;;;;;;;;;;;2.20;99.90;;;;;;5006760;28;19934;-81
2023/01/18 03:49:00;;;;;;;;;;;2.20;99.90;;;;;;4989399;28;20012;-80
2023/01/18 03:51:35;;;;;;;;;;;2.20;99.90;;;;;;5010217;28;20406;-80
2023/01/18 03:54:06;;;;;;;;;;;2.20;99.90;;;;;;5002832;28;20345;-80
2023/01/18 03:56:37;;;;;;;;;;;2.20;99.90;;;;;;4988375;28;19933;-80
2023/01/18 03:59:05;;;;;;;;;;;2.20;99.90;;;;;;5008936;28;20028;-81
2023/01/18 04:01:32;;;;;;;;;;;2.20;99.90;;;;;;4990737;28;19946;-80
2023/01/18 04:03:59;;;;;;;;;;;2.20;99.90;;;;;;5002392;28;19933;-79
2023/01/18 04:06:27;;;;;;;;;;;2.20;99.90;;;;;;5004134;28;20020;-80
2023/01/18 04:08:55;;;;;;;;;;;2.20;99.90;;;;;;5004352;28;20690;-80
2023/01/18 04:11:22;;;;;;;;;;;2.20;99.90;;;;;;5003251;28;19921;-81
2023/01/18 04:13:49;;;;;;;;;;;2.20;99.90;;;;;;5004170;28;19936;-80
2023/01/18 04:16:16;;;;;;;;;;;2.20;99.90;;;;;;5005816;28;19972;-80
2023/01/18 04:18:43;;;;;;;;;;;2.20;99.90;;;;;;5004474;28;19925;-80
2023/01/18 04:21:13;;;;;;;;;;;2.20;99.90;;;;;;5006415;28;19934;-80
2023/01/18 04:23:42;;;;;;;;;;;2.20;99.90;;;;;;5006321;28;19964;-80
2023/01/18 04:26:14;;;;;;;;;;;2.20;99.90;;;;;;5004801;28;19976;-80
2023/01/18 04:28:41;;;;;;;;;;;2.20;99.90;;;;;;5004435;28;19930;-81
2023/01/18 04:31:08;;;;;;;;;;;2.20;99.90;;;;;;4987951;28;19930;-79
2023/01/18 04:44:15;;;;;;;;;;;2.20;99.90;;;;;;4863176;29;20078;-81
2023/01/18 04:52:37;;;;;;;;;;;2.20;99.90;;;;;;5038409;28;19913;-80
2023/01/18 04:55:05;;;;;;;;;;;2.20;99.90;;;;;;5035762;28;19952;-80
2023/01/18 04:57:43;;;;;;;;;;;2.20;99.90;;;;;;5032613;28;19961;-82
2023/01/18 05:00:14;;;;;;;;;;;2.20;99.90;;;;;;5038346;28;19936;-81
2023/01/18 05:40:48;;;;;;;;;;;2.20;99.90;;;;;;4882569;29;19930;-78
2023/01/18 05:43:41;;;;;;;;;;;2.20;99.90;;;;;;4906155;29;19975;-82
2023/01/18 05:49:07;;;;;;;;;;;2.20;99.90;;;;;;4999124;28;19993;-81
2023/01/18 05:51:38;;;;;;;;;;;2.20;99.90;;;;;;4997326;28;19926;-78
2023/01/18 05:54:07;;;;;;;;;;;2.20;99.90;;;;;;4971608;28;19968;-80
2023/01/18 05:56:44;;;;;;;;;;;2.10;99.90;;;;;;5000680;28;19936;-81
2023/01/18 06:08:51;;;;;;;;;;;2.10;99.90;;;;;;5077565;23;19936;-79
2023/01/18 06:11:21;;;;;;;;;;;2.20;99.90;;;;;;5053263;28;19931;-81
2023/01/18 06:13:52;;;;;;;;;;;2.20;99.90;;;;;;5058610;28;19948;-81
2023/01/18 06:35:13;;;;;;;;;;;2.20;99.90;;;;;;5466640;23;19946;-80
2023/01/18 06:50:56;;;;;;;;;;;2.10;99.90;;;;;;4988702;28;19932;-81
2023/01/18 06:53:23;;;;;;;;;;;2.20;99.90;;;;;;4996636;28;19916;-80
2023/01/18 06:55:56;;;;;;;;;;;2.20;99.90;;;;;;4992939;28;20300;-81
2023/01/18 06:58:24;;;;;;;;;;;2.20;99.90;;;;;;4997634;28;19926;-80
2023/01/18 07:00:54;;;;;;;;;;;2.20;99.90;;;;;;4977350;28;19929;-81
2023/01/18 07:03:21;;;;;;;;;;;2.20;99.90;;;;;;4974385;28;19944;-80
2023/01/18 07:05:47;;;;;;;;;;;2.20;99.90;;;;;;4969105;28;19930;-80
2023/01/18 07:08:16;;;;;;;;;;;2.20;99.90;;;;;;4988437;28;19934;-79
2023/01/18 07:10:43;;;;;;;;;;;2.20;99.90;;;;;;4987185;28;19932;-79
2023/01/18 07:13:10;;;;;;;;;;;2.20;99.90;;;;;;5001081;28;19934;-80
2023/01/18 07:15:37;;;;;;;;;;;2.20;99.90;;;;;;4995094;28;19941;-80
2023/01/18 07:18:47;;;;;;;;;;;;;;;;;;;;;
2023/01/18 07:21:34;;;;;;;;;;;2.10;99.90;;;;;;4912224;29;20018;-81
2023/01/18 07:24:17;;;;;;;;;;;2.10;99.90;;;;;;4981219;28;20408;-80
2023/01/18 07:26:58;;;;;;;;;;;2.10;99.90;;;;;;4993992;28;19925;-81
2023/01/18 07:29:29;;;;;;;;;;;2.10;99.90;;;;;;4995532;28;19964;-80
2023/01/18 07:32:01;;;;;;;;;;;2.10;99.90;;;;;;4983557;28;19941;-80
2023/01/18 07:34:40;;;;;;;;;;;2.10;99.90;;;;;;4992913;28;19930;-80
2023/01/18 07:37:17;;;;;;;;;;;2.00;99.90;;;;;;4978271;28;20182;-81
2023/01/18 07:40:05;;;;;;;;;;;2.10;99.90;;;;;;4992238;28;19926;-80
2023/01/18 07:42:34;;;;;;;;;;;2.10;99.90;;;;;;4992099;28;20020;-80
2023/01/18 07:45:12;;;;;;;;;;;2.10;99.90;;;;;;4972751;28;19929;-76
2023/01/18 07:47:45;;;;;;;;;;;2.10;99.90;;;;;;4969195;28;19965;-80
2023/01/18 07:50:13;;;;;;;;;;;2.10;99.90;;;;;;4993202;28;20352;-81
2023/01/18 07:52:43;;;;;;;;;;;2.00;99.90;;;;;;4979621;28;19993;-80
2023/01/18 07:55:21;;;;;;;;;;;2.00;99.90;;;;;;4991055;28;19926;-80
2023/01/18 07:57:58;;;;;;;;;;;2.00;99.90;;;;;;4990642;28;19957;-80
2023/01/18 08:00:36;;;;;;;;;;;2.00;99.90;;;;;;4973864;28;19936;-81
2023/01/18 08:03:05;;;;;;;;;;;2.10;99.90;;;;;;4988846;28;20025;-80
2023/01/18 08:05:34;;;;;;;;;;;2.00;99.90;;;;;;4993761;28;20300;-80
2023/01/18 08:08:04;;;;;;;;;;;2.00;99.90;;;;;;4991787;28;19933;-80
2023/01/18 08:10:45;;;;;;;;;;;2.00;99.90;;;;;;4992381;28;20388;-80
2023/01/18 08:16:20;;;;;;;;;;;2.00;99.90;;;;;;4989785;28;20024;-80
2023/01/18 08:18:54;;;;;;;;;;;2.00;99.90;;;;;;4988444;28;19926;-81
2023/01/18 08:21:28;;;;;;;;;;;2.00;99.90;;;;;;4992975;28;19933;-80
2023/01/18 08:23:58;;;;;;;;;;;2.00;99.90;;;;;;4970537;28;19937;-81
2023/01/18 08:26:33;;;;;;;;;;;2.00;99.90;;;;;;4989625;28;20020;-81
2023/01/18 08:29:04;;;;;;;;;;;2.00;99.90;;;;;;4997923;28;19926;-80
2023/01/18 08:31:32;;;;;;;;;;;1.90;99.90;;;;;;4980035;28;19933;-80
2023/01/18 08:34:11;;;;;;;;;;;2.00;99.90;;;;;;4998341;28;19933;-80
2023/01/18 08:36:55;;;;;;;;;;;2.00;99.90;;;;;;4998754;28;20328;-80
2023/01/18 08:39:25;;;;;;;;;;;1.90;99.90;;;;;;4982222;28;19950;-81
2023/01/18 08:42:01;;;;;;;;;;;1.90;99.90;;;;;;5001382;28;19983;-80
2023/01/18 08:44:38;;;;;;;;;;;1.90;99.90;;;;;;4995550;28;20370;-80
2023/01/18 08:47:14;;;;;;;;;;;1.90;99.90;;;;;;5001348;28;19925;-80
2023/01/18 08:49:48;;;;;;;;;;;1.80;99.90;;;;;;4979920;28;19995;-80
2023/01/18 08:52:18;;;;;;;;;;;1.80;99.90;;;;;;4987891;28;20020;-80
2023/01/18 08:54:48;;;;;;;;;;;1.90;99.90;;;;;;4998548;28;19930;-80
2023/01/18 08:57:20;;;;;;;;;;;1.80;99.90;;;;;;4995788;28;19933;-80
2023/01/18 08:59:50;;;;;;;;;;;1.90;99.90;;;;;;4992824;28;19926;-80
2023/01/18 09:02:23;;;;;;;;;;;1.80;99.90;;;;;;4979231;28;19933;-80
2023/01/18 09:04:52;;;;;;;;;;;1.80;99.90;;;;;;4982025;28;20002;-81
2023/01/18 09:07:25;;;;;;;;;;;1.80;99.90;;;;;;4978944;28;19933;-80
2023/01/18 09:09:52;;;;;;;;;;;1.90;99.90;;;;;;4980325;28;20021;-80
2023/01/18 09:12:33;;;;;;;;;;;1.80;99.90;;;;;;4983485;28;19934;-80
2023/01/18 09:15:15;;;;;;;;;;;1.80;99.90;;;;;;4992742;28;20008;-80
2023/01/18 09:17:45;;;;;;;;;;;1.80;99.90;;;;;;4994946;28;20017;-80
2023/01/18 09:20:30;;;;;;;;;;;1.80;99.90;;;;;;5006573;28;19926;-80
2023/01/18 09:23:11;;;;;;;;;;;1.80;99.90;;;;;;5009338;28;19992;-80
2023/01/18 09:25:50;;;;;;;;;;;1.90;99.90;;;;;;4997506;28;19932;-80
2023/01/18 09:28:32;;;;;;;;;;;1.80;99.90;;;;;;4995704;28;19932;-80
2023/01/18 09:31:04;;;;;;;;;;;1.80;99.90;;;;;;4997447;28;19936;-80
2023/01/18 09:33:34;;;;;;;;;;;1.80;99.90;;;;;;4992757;28;19976;-80
2023/01/18 09:36:09;;;;;;;;;;;1.80;99.90;;;;;;4997235;28;19956;-80
2023/01/18 09:41:51;;;;;;;;;;;1.80;99.90;;;;;;4995720;28;20300;-79
2023/01/18 09:44:21;;;;;;;;;;;1.80;99.90;;;;;;4983461;28;19934;-80
2023/01/18 09:46:50;;;;;;;;;;;1.80;99.90;;;;;;4986931;28;19948;-80
2023/01/18 09:49:19;;;;;;;;;;;1.80;99.90;;;;;;4991108;28;19926;-80
2023/01/18 09:51:52;;;;;;;;;;;1.70;99.90;;;;;;4993904;28;19926;-80
2023/01/18 09:54:25;;;;;;;;;;;1.80;99.90;;;;;;4990299;28;19952;-80
2023/01/18 09:56:57;;;;;;;;;;;1.80;99.90;;;;;;4999340;28;19926;-80
2023/01/18 09:59:31;;;;;;;;;;;1.80;99.90;;;;;;4992692;28;19956;-81
2023/01/18 10:02:01;;;;;;;;;;;1.70;99.90;;;;;;4991399;28;19926;-80
2023/01/18 10:04:32;;;;;;;;;;;1.70;99.90;;;;;;4989396;28;19930;-80
2023/01/18 10:07:00;;;;;;;;;;;1.70;99.90;;;;;;4974298;28;19925;-80
2023/01/18 10:09:29;;;;;;;;;;;1.70;99.90;;;;;;4990245;28;20125;-80
2023/01/18 10:11:58;;;;;;;;;;;1.80;99.90;;;;;;4992947;28;19934;-79
2023/01/18 10:14:37;;;;;;;;;;;1.80;99.90;;;;;;4994272;28;19977;-80
2023/01/18 10:17:10;;;;;;;;;;;1.70;99.90;;;;;;4993953;28;19949;-80
2023/01/18 10:19:38;;;;;;;;;;;1.80;99.90;;;;;;4992662;28;19956;-80
2023/01/18 10:22:06;;;;;;;;;;;1.80;99.90;;;;;;4990748;28;19933;-80
2023/01/18 10:24:41;;;;;;;;;;;1.70;99.90;;;;;;4991174;28;19936;-80
2023/01/18 10:27:21;;;;;;;;;;;1.70;99.90;;;;;;5009153;28;19955;-80
2023/01/18 10:29:55;;;;;;;;;;;1.70;99.90;;;;;;4995219;28;19930;-79
2023/01/18 10:32:24;;;;;;;;;;;1.70;99.90;;;;;;4997233;28;19926;-80
2023/01/18 10:34:51;;;;;;;;;;;1.70;99.90;;;;;;4988483;28;19934;-80
2023/01/18 10:37:26;;;;;;;;;;;1.70;99.90;;;;;;4977894;28;19957;-81
2023/01/18 10:39:56;;;;;;;;;;;1.80;99.90;;;;;;4985676;28;19926;-80
2023/01/18 10:42:23;;;;;;;;;;;1.80;99.90;;;;;;4990104;28;19926;-80
2023/01/18 10:44:52;;;;;;;;;;;1.70;99.90;;;;;;4995984;28;19926;-80
2023/01/18 10:47:20;;;;;;;;;;;1.80;99.90;;;;;;4992706;28;19932;-80
2023/01/18 10:49:49;;;;;;;;;;;1.70;99.90;;;;;;4987209;28;19969;-80
2023/01/18 10:52:23;;;;;;;;;;;1.80;99.90;;;;;;4987777;28;19926;-80
2023/01/18 10:54:51;;;;;;;;;;;1.70;99.90;;;;;;4981742;28;19941;-80
2023/01/18 10:57:20;;;;;;;;;;;1.80;99.90;;;;;;4997541;28;19956;-81
2023/01/18 10:59:50;;;;;;;;;;;1.70;99.90;;;;;;4992132;28;19926;-80
2023/01/18 11:02:22;;;;;;;;;;;1.70;99.90;;;;;;4992975;28;19937;-80
2023/01/18 11:04:53;;;;;;;;;;;1.80;99.90;;;;;;4986894;28;19932;-80
2023/01/18 11:07:23;;;;;;;;;;;1.70;99.90;;;;;;4990504;28;20011;-80
2023/01/18 11:09:53;;;;;;;;;;;1.80;99.90;;;;;;4990335;28;19933;-82
2023/01/18 11:12:36;;;;;;;;;;;1.70;99.90;;;;;;4987433;28;19941;-80
2023/01/18 11:15:17;;;;;;;;;;;1.70;99.90;;;;;;4997339;28;19933;-80
2023/01/18 11:17:59;;;;;;;;;;;1.70;99.90;;;;;;4989866;23;19948;-78
2023/01/18 11:20:33;;;;;;;;;;;1.70;99.90;;;;;;5048171;28;19995;-80
2023/01/18 11:23:16;;;;;;;;;;;1.80;99.90;;;;;;5057157;28;19963;-80
2023/01/18 11:25:47;;;;;;;;;;;1.70;99.90;;;;;;5050032;28;19946;-81
2023/01/18 11:28:17;;;;;;;;;;;1.70;99.90;;;;;;5039434;28;19932;-78
2023/01/18 11:30:50;;;;;;;;;;;1.70;99.90;;;;;;5029851;28;19937;-80
2023/01/18 11:33:24;;;;;;;;;;;1.70;99.90;;;;;;5014977;28;20011;-80
2023/01/18 11:36:03;;;;;;;;;;;1.70;99.90;;;;;;5017911;28;20012;-83
2023/01/18 11:38:38;;;;;;;;;;;1.70;99.90;;;;;;5014520;28;20016;-80
2023/01/18 11:41:10;;;;;;;;;;;1.70;99.90;;;;;;5033047;28;20043;-78
2023/01/18 11:43:49;;;;;;;;;;;1.80;99.90;;;;;;5015820;28;19931;-80
2023/01/18 11:46:30;;;;;;;;;;;1.80;99.90;;;;;;5039372;28;19925;-79
2023/01/18 11:52:13;;;;;;;;;;;1.70;99.90;;;;;;5019970;28;20016;-81
2023/01/18 11:54:45;;;;;;;;;;;1.80;99.90;;;;;;5022180;28;19944;-81
2023/01/18 11:57:39;;;;;;;;;;;1.80;99.90;;;;;;5013254;28;20501;-81
2023/01/18 12:00:12;;;;;;;;;;;1.80;99.90;;;;;;5006030;28;20029;-78
2023/01/18 12:02:57;;;;;;;;;;;1.80;99.90;;;;;;5006000;28;19925;-77
2023/01/18 12:05:35;;;;;;;;;;;1.80;99.90;;;;;;5023583;28;20376;-77
2023/01/18 12:08:10;;;;;;;;;;;1.80;99.90;;;;;;5012595;28;19937;-77
2023/01/18 12:10:43;;;;;;;;;;;1.80;99.90;;;;;;5012558;28;19925;-77
2023/01/18 12:13:22;;;;;;;;;;;1.80;99.90;;;;;;5010960;28;19925;-78
2023/01/18 12:15:56;;;;;;;;;;;1.80;99.90;;;;;;5015640;28;19956;-77
2023/01/18 12:18:30;;;;;;;;;;;1.70;99.90;;;;;;5024536;28;19929;-77
2023/01/18 12:21:01;;;;;;;;;;;1.80;99.90;;;;;;5006329;28;19929;-79
2023/01/18 12:23:41;;;;;;;;;;;1.70;99.90;;;;;;5012221;28;20015;-77
2023/01/18 12:26:23;;;;;;;;;;;1.70;99.90;;;;;;5025549;28;19995;-78
2023/01/18 12:29:03;;;;;;;;;;;1.70;99.90;;;;;;5015958;28;19972;-77
2023/01/18 12:31:38;;;;;;;;;;;1.70;99.90;;;;;;5026582;28;19980;-78
2023/01/18 12:34:12;;;;;;;;;;;1.70;99.90;;;;;;5033959;28;19925;-78
2023/01/18 12:36:57;;;;;;;;;;;1.70;99.90;;;;;;5019945;28;19925;-77
2023/01/18 12:39:32;;;;;;;;;;;1.70;99.90;;;;;;4999824;28;19956;-77
2023/01/18 12:42:03;;;;;;;;;;;1.70;99.90;;;;;;5016329;28;20357;-76
2023/01/18 12:44:42;;;;;;;;;;;1.70;99.90;;;;;;5015451;28;19929;-77
2023/01/18 12:47:38;;;;;;;;;;;1.70;99.90;;;;;;5018848;28;19933;-78
2023/01/18 12:50:20;;;;;;;;;;;1.70;99.90;;;;;;5017015;28;19924;-80
2023/01/18 12:53:03;;;;;;;;;;;1.70;99.90;;;;;;5028996;28;19929;-80
2023/01/18 12:55:40;;;;;;;;;;;1.70;99.90;;;;;;5026728;28;19925;-79
2023/01/18 12:58:24;;;;;;;;;;;1.70;99.90;;;;;;5021173;28;19988;-79
2023/01/18 13:00:57;;;;;;;;;;;1.70;99.90;;;;;;5024760;28;19934;-82
2023/01/18 13:03:41;;;;;;;;;;;1.70;99.90;;;;;;5028010;28;20404;-79
2023/01/18 13:06:13;;;;;;;;;;;1.70;99.90;;;;;;5002045;28;19926;-79
2023/01/18 13:08:46;;;;;;;;;;;1.70;99.90;;;;;;5001180;28;19933;-79
2023/01/18 13:11:22;;;;;;;;;;;1.70;99.90;;;;;;5020116;28;19929;-79
2023/01/18 13:13:52;;;;;;;;;;;1.70;99.90;;;;;;5018959;28;19979;-79
2023/01/18 13:16:38;;;;;;;;;;;1.70;99.90;;;;;;5013705;28;19933;-80
2023/01/18 13:19:10;;;;;;;;;;;1.70;99.90;;;;;;5003704;28;19925;-80
2023/01/18 13:21:54;;;;;;;;;;;1.70;99.90;;;;;;5016655;28;19956;-79
2023/01/18 13:24:35;;;;;;;;;;;1.70;99.90;;;;;;5031983;28;19941;-79
2023/01/18 13:27:14;;;;;;;;;;;1.70;99.90;;;;;;5032638;28;20016;-79
2023/01/18 13:29:44;;;;;;;;;;;1.70;99.90;;;;;;5018066;28;20404;-81
2023/01/18 13:32:42;;;;;;;;;;;1.60;99.90;;;;;;5030791;28;19935;-79
2023/01/18 13:35:20;;;;;;;;;;;1.70;99.90;;;;;;5025519;28;19948;-79
2023/01/18 13:37:57;;;;;;;;;;;1.70;99.90;;;;;;5035539;28;19940;-79
2023/01/18 13:40:37;;;;;;;;;;;1.70;99.90;;;;;;5031610;28;19959;-79
2023/01/18 13:43:30;;;;;;;;;;;1.70;99.90;;;;;;5036513;28;20016;-81
2023/01/18 13:46:27;;;;;;;;;;;1.70;99.90;;;;;;5013775;28;20383;-79
2023/01/18 13:48:56;;;;;;;;;;;1.70;99.90;;;;;;5010979;28;19930;-80
2023/01/18 13:51:42;;;;;;;;;;;1.70;99.90;;;;;;5029976;28;19931;-78
2023/01/18 13:54:10;;;;;;;;;;;1.70;99.90;;;;;;5015708;28;19980;-78
2023/01/18 13:56:37;;;;;;;;;;;1.70;99.90;;;;;;5022910;28;20404;-78
2023/01/18 13:59:23;;;;;;;;;;;1.70;99.90;;;;;;5020392;28;19924;-79
2023/01/18 14:02:05;;;;;;;;;;;1.70;99.90;;;;;;5012957;28;19931;-79
2023/01/18 14:04:34;;;;;;;;;;;1.70;99.90;;;;;;5008493;28;19925;-78
2023/01/18 14:07:03;;;;;;;;;;;1.60;99.90;;;;;;5008430;28;20433;-79
2023/01/18 14:09:34;;;;;;;;;;;1.60;99.90;;;;;;5027443;28;19945;-78
2023/01/18 14:12:01;;;;;;;;;;;1.70;99.90;;;;;;5020025;28;19979;-79
2023/01/18 14:14:29;;;;;;;;;;;1.70;99.90;;;;;;5026800;28;19925;-79
2023/01/18 14:17:00;;;;;;;;;;;1.60;99.90;;;;;;5033624;28;19934;-80
2023/01/18 14:19:28;;;;;;;;;;;1.60;99.90;;;;;;5030947;28;20012;-79
2023/01/18 14:22:14;;;;;;;;;;;1.60;99.90;;;;;;5041081;28;21537;-79
2023/01/18 14:24:50;;;;;;;;;;;1.60;99.90;;;;;;5030714;28;19937;-79
2023/01/18 14:27:20;;;;;;;;;;;1.60;99.90;;;;;;5025301;28;19936;-79
2023/01/18 14:29:49;;;;;;;;;;;1.60;99.90;;;;;;5012661;28;20016;-80
2023/01/18 14:32:20;;;;;;;;;;;1.60;99.90;;;;;;5001576;28;19926;-80
2023/01/18 14:34:55;;;;;;;;;;;1.60;99.90;;;;;;5032262;28;19925;-80
2023/01/18 14:37:25;;;;;;;;;;;1.60;99.90;;;;;;5006184;28;19926;-79
2023/01/18 14:40:22;;;;;;;;;;;1.60;99.90;;;;;;5003579;28;19925;-79
2023/01/18 14:42:52;;;;;;;;;;;1.60;99.90;;;;;;4963452;28;19973;-80
2023/01/18 14:45:21;;;;;;;;;;;1.60;99.90;;;;;;4994529;28;19932;-79
2023/01/18 14:47:50;;;;;;;;;;;1.60;99.90;;;;;;5015312;28;19933;-79
2023/01/18 14:50:19;;;;;;;;;;;1.60;99.90;;;;;;5026061;28;19956;-80
2023/01/18 14:52:47;;;;;;;;;;;1.60;99.90;;;;;;5027008;28;20398;-82
2023/01/18 14:55:22;;;;;;;;;;;1.60;99.90;;;;;;5038515;28;19935;-79
2023/01/18 14:57:51;;;;;;;;;;;1.60;99.90;;;;;;5017284;28;19977;-79
2023/01/18 15:00:19;;;;;;;;;;;1.60;99.90;;;;;;5023654;28;19925;-79
2023/01/18 15:02:47;;;;;;;;;;;1.60;99.90;;;;;;5021310;28;19924;-80
2023/01/18 15:05:32;;;;;;;;;;;1.60;99.90;;;;;;5028430;28;19926;-79
2023/01/18 15:08:12;;;;;;;;;;;1.60;99.90;;;;;;5035594;28;19925;-85
2023/01/18 15:10:47;;;;;;;;;;;1.60;99.90;;;;;;5031608;28;19925;-79
2023/01/18 15:13:19;;;;;;;;;;;1.60;99.90;;;;;;5013405;28;19929;-79
2023/01/18 15:15:47;;;;;;;;;;;1.60;99.90;;;;;;5024636;28;20017;-83
2023/01/18 15:18:21;;;;;;;;;;;1.60;99.90;;;;;;5003602;28;19983;-79
2023/01/18 15:20:53;;;;;;;;;;;1.60;99.90;;;;;;5040577;28;20382;-81
2023/01/18 15:23:24;;;;;;;;;;;1.60;99.90;;;;;;5038297;28;19931;-80
2023/01/18 15:25:52;;;;;;;;;;;1.60;99.90;;;;;;5031174;28;20451;-80
2023/01/18 15:28:24;;;;;;;;;;;1.60;99.90;;;;;;5033470;28;19932;-80
2023/01/18 15:31:06;;;;;;;;;;;1.60;99.90;;;;;;5021759;28;20377;-79
2023/01/18 15:33:41;;;;;;;;;;;1.60;99.90;;;;;;5023745;28;19929;-82
2023/01/18 15:36:26;;;;;;;;;;;1.60;99.90;;;;;;5012370;28;20391;-79
2023/01/18 15:39:04;;;;;;;;;;;1.60;99.90;;;;;;5032559;28;19933;-81
2023/01/18 15:41:57;;;;;;;;;;;1.60;99.90;;;;;;5020060;28;20029;-79
2023/01/18 15:44:37;;;;;;;;;;;1.60;99.90;;;;;;5012339;28;19961;-78
2023/01/18 15:50:35;;;;;;;;;;;1.60;99.90;;;;;;5025921;28;19933;-80
2023/01/18 15:53:26;;;;;;;;;;;1.60;99.90;;;;;;5006764;28;19929;-81
2023/01/18 15:56:02;;;;;;;;;;;1.60;99.90;;;;;;5021641;28;19932;-80
2023/01/18 15:58:32;;;;;;;;;;;1.60;99.90;;;;;;5032874;28;19944;-80
2023/01/18 16:01:26;;;;;;;;;;;1.50;99.90;;;;;;5024265;28;19947;-79
2023/01/18 16:04:02;;;;;;;;;;;1.60;99.90;;;;;;5028648;28;22557;-80
2023/01/18 16:06:44;;;;;;;;;;;1.50;99.90;;;;;;5019670;28;20028;-80
2023/01/18 16:09:47;;;;;;;;;;;1.50;99.90;;;;;;5024163;28;19933;-80
2023/01/18 16:12:39;;;;;;;;;;;1.50;99.90;;;;;;4971965;28;20519;-79
2023/01/18 16:15:27;;;;;;;;;;;1.50;99.90;;;;;;5020708;28;20012;-80
2023/01/18 16:17:58;;;;;;;;;;;1.50;99.90;;;;;;5031999;28;19937;-79
2023/01/18 16:20:28;;;;;;;;;;;1.50;99.90;;;;;;5023353;28;20470;-78
2023/01/18 16:23:04;;;;;;;;;;;1.60;99.90;;;;;;4993454;28;19941;-78
2023/01/18 16:25:33;;;;;;;;;;;1.50;99.90;;;;;;5008736;28;19929;-79
2023/01/18 16:28:06;;;;;;;;;;;1.50;99.90;;;;;;4995157;28;20019;-77
2023/01/18 16:30:35;;;;;;;;;;;1.50;99.90;;;;;;5005385;28;20013;-79
2023/01/18 16:33:08;;;;;;;;;;;1.50;99.90;;;;;;5003390;28;21375;-78
2023/01/18 16:35:40;;;;;;;;;;;1.50;99.90;;;;;;5012813;28;19937;-78
2023/01/18 16:38:13;;;;;;;;;;;1.50;99.90;;;;;;5022852;28;20299;-78
2023/01/18 16:40:42;;;;;;;;;;;1.50;99.90;;;;;;5002640;28;19925;-80
2023/01/18 16:43:21;;;;;;;;;;;1.50;99.90;;;;;;5024382;28;19925;-80
2023/01/18 16:45:53;;;;;;;;;;;1.50;99.90;;;;;;5024482;28;19925;-78
2023/01/18 16:48:22;;;;;;;;;;;1.50;99.90;;;;;;5012274;28;20497;-79
2023/01/18 16:50:51;;;;;;;;;;;1.50;99.90;;;;;;5030145;28;19932;-80
2023/01/18 16:53:19;;;;;;;;;;;1.50;99.90;;;;;;5030045;28;19926;-79
2023/01/18 16:55:47;;;;;;;;;;;1.50;99.90;;;;;;5029764;28;19929;-79
2023/01/18 16:58:20;;;;;;;;;;;1.50;99.90;;;;;;5028974;28;19933;-78
2023/01/18 17:00:50;;;;;;;;;;;1.50;99.90;;;;;;5016033;28;19936;-78
2023/01/18 17:03:18;;;;;;;;;;;1.50;99.90;;;;;;5022645;28;19937;-77
2023/01/18 17:05:45;;;;;;;;;;;1.50;99.90;;;;;;5017315;28;20386;-78
2023/01/18 17:08:13;;;;;;;;;;;1.40;99.90;;;;;;5021848;28;19937;-77
2023/01/18 17:10:46;;;;;;;;;;;1.40;99.90;;;;;;4999673;28;19976;-78
2023/01/18 17:13:15;;;;;;;;;;;1.40;99.90;;;;;;5016289;28;19925;-78
2023/01/18 17:15:44;;;;;;;;;;;1.40;99.90;;;;;;5015969;28;19925;-78
2023/01/18 17:18:13;;;;;;;;;;;1.40;99.90;;;;;;5012273;28;19935;-78
2023/01/18 17:20:40;;;;;;;;;;;1.40;99.90;;;;;;5021059;28;19925;-77
2023/01/18 17:23:07;;;;;;;;;;;1.40;99.90;;;;;;5017230;28;19929;-78
2023/01/18 17:25:35;;;;;;;;;;;1.40;99.90;;;;;;5016361;28;20396;-78
2023/01/18 17:28:03;;;;;;;;;;;1.40;99.90;;;;;;5024413;28;19948;-78
2023/01/18 17:30:31;;;;;;;;;;;1.40;99.90;;;;;;5003892;28;19929;-78